Arcturus, Minnesota
Current Conditions -  °F | °C
As of 5:15 PM on Wednesday 26 Nov 2014 (Local Time) from KGPZ Reporting Station
Clear Clear  
Wind Chill: -8°   Ceiling: Unl
Heat Index:   Visibility: 10mi
Dew Point: -6°   Wind: 14mph
Humidity: 52%   Direction: 320°NW
Pressure: 30.3"   Gusts: NA
Location:  47.3121°N, 93.3823°W
Report Text: KGPZ 262315Z AUTO 32012KT 10SM CLR M13/M21 A3030 RMK AO1
Loading
Personal Weather Stations






























Interactive Weather Map New forecast layout! Learn more

10-Day Weather Forecast

Advertisements
Track Severe Weather on mobile